Time,TemperatureF,DewpointF,PressureIn,WindDirection,WindDirectionDegrees,WindSpeedMPH,WindSpeedGustMPH,Humidity,HourlyPrecipIn,Conditions,Clouds,dailyrainin,SoftwareType,DateUTC
2014-01-11 00:01:00,18.7,12.4,30.12,East,90,1.6,2.2,76,0.00,,,0.00,WeatherCatV1.24B11,2014-01-11 05:01:00,
2014-01-11 00:02:00,18.7,12.4,30.12,NNE,22,1.6,2.7,76,0.00,,,0.00,WeatherCatV1.24B11,2014-01-11 05:02:00,
2014-01-11 00:03:00,18.7,12.4,30.12,NNE,22,1.6,2.7,76,0.00,,,0.00,WeatherCatV1.24B11,2014-01-11 05:03:00,
2014-01-11 00:08:00,18.7,12.4,30.12,NNW,337,1.3,1.3,76,0.00,,,0.00,WeatherCatV1.24B11,2014-01-11 05:08:00,
2014-01-11 00:13:00,18.7,12.4,30.12,ENE,67,0.9,0.9,76,0.00,,,0.00,WeatherCatV1.24B11,2014-01-11 05:13:00,
2014-01-11 00:18:00,18.7,12.4,30.09,NE,45,0.0,0.0,76,0.00,,,0.00,WeatherCatV1.24B11,2014-01-11 05:18:00,
2014-01-11 00:23:00,18.9,12.6,30.09,ESE,112,0.9,3.1,76,0.00,,,0.00,WeatherCatV1.24B11,2014-01-11 05:23:00,
2014-01-11 00:28:00,19.0,12.7,30.09,NNE,22,1.1,2.0,76,0.00,,,0.00,WeatherCatV1.24B11,2014-01-11 05:28:00,
2014-01-11 00:33:00,19.0,12.7,30.09,East,90,2.7,3.8,76,0.00,,,0.00,WeatherCatV1.24B11,2014-01-11 05:33:00,
2014-01-11 00:38:00,19.0,12.7,30.09,East,90,0.0,0.9,76,0.00,,,0.00,WeatherCatV1.24B11,2014-01-11 05:38:00,
2014-01-11 00:43:00,19.2,12.9,30.09,NE,45,0.0,0.9,76,0.00,,,0.00,WeatherCatV1.24B11,2014-01-11 05:43:00,
2014-01-11 00:48:00,19.2,12.9,30.09,ENE,67,0.0,0.0,76,0.00,,,0.00,WeatherCatV1.24B11,2014-01-11 05:48:00,
2014-01-11 00:53:00,19.2,12.9,30.09,ENE,67,0.0,0.0,76,0.00,,,0.00,WeatherCatV1.24B11,2014-01-11 05:53:00,
2014-01-11 00:58:00,19.2,12.9,30.09,NE,45,0.9,1.6,76,0.00,,,0.00,WeatherCatV1.24B11,2014-01-11 05:58:00,
2014-01-11 01:03:00,19.2,12.9,30.09,ENE,67,0.0,1.1,76,0.00,,,0.00,WeatherCatV1.24B11,2014-01-11 06:03:00,
2014-01-11 01:08:00,19.2,12.9,30.09,NW,315,0.0,1.3,76,0.00,,,0.00,WeatherCatV1.24B11,2014-01-11 06:08:00,
2014-01-11 01:13:00,19.2,12.9,30.09,East,90,0.0,2.9,76,0.00,,,0.00,WeatherCatV1.24B11,2014-01-11 06:13:00,
2014-01-11 01:18:00,19.2,12.9,30.09,NNE,22,1.1,2.5,76,0.00,,,0.00,WeatherCatV1.24B11,2014-01-11 06:18:00,
2014-01-11 01:23:00,19.2,13.2,30.09,NE,45,2.7,3.4,77,0.00,,,0.00,WeatherCatV1.24B11,2014-01-11 06:23:00,
2014-01-11 01:28:00,19.2,13.2,30.09,ESE,112,1.6,2.5,77,0.00,,,0.00,WeatherCatV1.24B11,2014-01-11 06:28:00,
2014-01-11 01:33:00,19.2,13.5,30.06,East,90,0.9,2.2,78,0.00,,,0.00,WeatherCatV1.24B11,2014-01-11 06:33:00,
2014-01-11 01:38:00,19.2,13.5,30.06,NE,45,1.3,2.5,78,0.00,,,0.00,WeatherCatV1.24B11,2014-01-11 06:38:00,
2014-01-11 01:43:00,19.4,13.7,30.06,NE,45,2.9,2.9,78,0.00,,,0.00,WeatherCatV1.24B11,2014-01-11 06:43:00,
2014-01-11 01:48:00,19.4,13.7,30.03,ENE,67,2.2,2.7,78,0.00,,,0.00,WeatherCatV1.24B11,2014-01-11 06:48:00,
2014-01-11 01:53:00,19.4,13.7,30.03,ENE,67,1.3,2.9,78,0.00,,,0.00,WeatherCatV1.24B11,2014-01-11 06:53:00,
2014-01-11 01:58:00,19.6,13.9,30.03,SE,135,0.0,0.0,78,0.00,,,0.00,WeatherCatV1.24B11,2014-01-11 06:58:00,
2014-01-11 02:03:00,19.6,13.9,30.03,NNE,22,0.9,2.5,78,0.00,,,0.00,WeatherCatV1.24B11,2014-01-11 07:03:00,
2014-01-11 02:08:00,19.8,14.3,30.03,NNE,22,1.6,2.9,79,0.00,,,0.00,WeatherCatV1.24B11,2014-01-11 07:08:00,
2014-01-11 02:13:00,19.8,14.3,30.03,ENE,67,1.3,2.0,79,0.00,,,0.00,WeatherCatV1.24B11,2014-01-11 07:13:00,
2014-01-11 02:18:00,19.8,14.3,30.03,NE,45,3.1,3.1,79,0.00,,,0.00,WeatherCatV1.24B11,2014-01-11 07:18:00,
2014-01-11 02:23:00,19.9,14.8,30.03,ESE,112,3.6,3.6,80,0.00,,,0.00,WeatherCatV1.24B11,2014-01-11 07:23:00,
2014-01-11 02:28:00,19.9,14.8,30.03,ESE,112,2.0,2.0,80,0.00,,,0.00,WeatherCatV1.24B11,2014-01-11 07:28:00,
2014-01-11 02:33:00,19.9,14.8,30.03,NNW,337,1.1,3.1,80,0.00,,,0.00,WeatherCatV1.24B11,2014-01-11 07:33:00,
2014-01-11 02:38:00,19.9,14.8,30.03,NNW,337,0.0,1.6,80,0.00,,,0.00,WeatherCatV1.24B11,2014-01-11 07:38:00,
2014-01-11 02:43:00,20.1,15.0,30.03,North,0,0.9,2.0,80,0.00,,,0.00,WeatherCatV1.24B11,2014-01-11 07:43:00,
2014-01-11 02:48:00,20.1,15.0,30.03,ESE,112,1.6,1.6,80,0.00,,,0.00,WeatherCatV1.24B11,2014-01-11 07:48:00,
2014-01-11 02:54:00,20.1,14.7,30.03,NNE,22,0.0,1.6,79,0.00,,,0.00,WeatherCatV1.24B11,2014-01-11 07:54:00,
2014-01-11 02:59:00,20.1,14.7,30.03,East,90,1.1,2.5,79,0.00,,,0.00,WeatherCatV1.24B11,2014-01-11 07:59:00,
2014-01-11 03:04:00,20.1,14.7,30.00,SSE,157,1.3,1.3,79,0.00,,,0.00,WeatherCatV1.24B11,2014-01-11 08:04:00,
2014-01-11 03:09:00,20.1,14.7,30.00,NNE,22,0.0,1.3,79,0.00,,,0.00,WeatherCatV1.24B11,2014-01-11 08:09:00,
2014-01-11 03:14:00,20.1,14.7,30.00,ENE,67,0.9,1.6,79,0.00,,,0.00,WeatherCatV1.24B11,2014-01-11 08:14:00,
2014-01-11 03:19:00,20.1,14.7,30.00,North,0,1.1,2.0,79,0.00,,,0.00,WeatherCatV1.24B11,2014-01-11 08:19:00,
2014-01-11 03:24:00,20.1,14.7,30.00,East,90,1.1,3.1,79,0.00,,,0.00,WeatherCatV1.24B11,2014-01-11 08:24:00,
2014-01-11 03:29:00,19.9,14.5,30.00,ENE,67,1.3,1.6,79,0.00,,,0.00,WeatherCatV1.24B11,2014-01-11 08:29:00,
2014-01-11 03:34:00,19.9,14.5,29.97,NNE,22,2.0,2.7,79,0.00,,,0.00,WeatherCatV1.24B11,2014-01-11 08:34:00,
2014-01-11 03:39:00,19.9,14.8,29.97,North,0,0.9,2.5,80,0.00,,,0.00,WeatherCatV1.24B11,2014-01-11 08:39:00,
2014-01-11 03:44:00,19.9,14.8,29.97,NNE,22,0.0,2.5,80,0.00,,,0.00,WeatherCatV1.24B11,2014-01-11 08:44:00,
2014-01-11 03:49:00,19.9,14.8,29.97,NE,45,1.3,1.3,80,0.00,,,0.00,WeatherCatV1.24B11,2014-01-11 08:49:00,
2014-01-11 03:54:00,19.9,14.8,29.97,ESE,112,2.2,2.2,80,0.00,,,0.00,WeatherCatV1.24B11,2014-01-11 08:54:00,
2014-01-11 03:59:00,19.9,14.8,29.97,NNW,337,1.6,2.0,80,0.00,,,0.00,WeatherCatV1.24B11,2014-01-11 08:59:00,
2014-01-11 04:04:00,19.9,14.8,29.94,NNE,22,0.0,2.7,80,0.00,,,0.00,WeatherCatV1.24B11,2014-01-11 09:04:00,
2014-01-11 04:09:00,20.1,15.2,29.94,ESE,112,1.6,2.0,81,0.00,,,0.00,WeatherCatV1.24B11,2014-01-11 09:09:00,
2014-01-11 04:14:00,20.1,15.2,29.94,NNE,22,2.2,2.7,81,0.00,,,0.00,WeatherCatV1.24B11,2014-01-11 09:14:00,
2014-01-11 04:19:00,20.1,15.2,29.91,ESE,112,0.0,2.5,81,0.00,,,0.00,WeatherCatV1.24B11,2014-01-11 09:19:00,
2014-01-11 04:24:00,20.3,15.4,29.91,NE,45,2.0,2.7,81,0.00,,,0.00,WeatherCatV1.24B11,2014-01-11 09:24:00,
2014-01-11 04:29:00,20.3,15.4,29.91,NNE,22,0.9,2.0,81,0.00,,,0.00,WeatherCatV1.24B11,2014-01-11 09:29:00,
2014-01-11 04:34:00,20.3,15.4,29.91,NNE,22,1.3,2.7,81,0.00,,,0.00,WeatherCatV1.24B11,2014-01-11 09:34:00,
2014-01-11 04:39:00,20.3,15.4,29.91,ENE,67,2.7,5.4,81,0.00,,,0.00,WeatherCatV1.24B11,2014-01-11 09:39:00,
2014-01-11 04:44:00,20.5,15.6,29.91,NNE,22,0.0,0.0,81,0.00,,,0.00,WeatherCatV1.24B11,2014-01-11 09:44:00,
2014-01-11 04:49:00,20.5,15.6,29.91,NE,45,1.6,2.5,81,0.00,,,0.00,WeatherCatV1.24B11,2014-01-11 09:49:00,
2014-01-11 04:54:00,20.5,15.9,29.91,NE,45,2.5,3.8,82,0.00,,,0.00,WeatherCatV1.24B11,2014-01-11 09:54:00,
2014-01-11 04:59:00,20.7,16.0,29.91,SSE,157,0.0,2.7,82,0.00,,,0.00,WeatherCatV1.24B11,2014-01-11 09:59:00,
2014-01-11 05:04:00,20.7,16.0,29.88,East,90,1.6,1.6,82,0.00,,,0.00,WeatherCatV1.24B11,2014-01-11 10:04:00,
2014-01-11 05:09:00,20.7,16.0,29.88,NNE,22,0.0,2.2,82,0.00,,,0.00,WeatherCatV1.24B11,2014-01-11 10:09:00,
2014-01-11 05:15:00,20.8,16.2,29.88,ENE,67,0.0,1.3,82,0.00,,,0.00,WeatherCatV1.24B11,2014-01-11 10:15:00,
2014-01-11 05:20:00,20.8,16.2,29.85,ESE,112,2.5,2.7,82,0.00,,,0.00,WeatherCatV1.24B11,2014-01-11 10:20:00,
2014-01-11 05:25:00,20.8,16.2,29.85,NNE,22,2.0,2.0,82,0.00,,,0.00,WeatherCatV1.24B11,2014-01-11 10:25:00,
2014-01-11 05:30:00,21.0,16.7,29.85,North,0,0.9,4.3,83,0.00,,,0.00,WeatherCatV1.24B11,2014-01-11 10:30:00,
2014-01-11 05:35:00,21.2,16.9,29.85,SE,135,2.9,3.1,83,0.00,,,0.00,WeatherCatV1.24B11,2014-01-11 10:35:00,
2014-01-11 05:40:00,21.2,17.7,29.88,ENE,67,2.7,3.4,86,0.00,,,0.00,WeatherCatV1.24B11,2014-01-11 10:40:00,
2014-01-11 05:45:00,21.4,17.9,29.88,SSW,202,1.6,2.7,86,0.00,,,0.00,WeatherCatV1.24B11,2014-01-11 10:45:00,
2014-01-11 05:50:00,21.7,18.5,29.85,ESE,112,4.3,4.3,87,0.00,,,0.00,WeatherCatV1.24B11,2014-01-11 10:50:00,
2014-01-11 05:55:00,21.9,19.2,29.85,NNE,22,0.0,2.5,89,0.00,,,0.00,WeatherCatV1.24B11,2014-01-11 10:55:00,
2014-01-11 06:00:00,22.3,19.8,29.85,SSE,157,2.0,2.7,90,0.00,,,0.00,WeatherCatV1.24B11,2014-01-11 11:00:00,
2014-01-11 06:05:00,22.6,20.4,29.80,East,90,3.4,4.9,91,0.00,,,0.00,WeatherCatV1.24B11,2014-01-11 11:05:00,
2014-01-11 06:10:00,22.8,21.1,29.80,NE,45,1.1,3.8,93,0.00,,,0.00,WeatherCatV1.24B11,2014-01-11 11:10:00,
2014-01-11 06:15:00,22.8,21.4,29.80,ESE,112,2.0,6.0,94,0.00,,,0.00,WeatherCatV1.24B11,2014-01-11 11:15:00,
2014-01-11 06:20:00,23.0,21.5,29.80,ENE,67,1.1,3.1,94,0.00,,,0.00,WeatherCatV1.24B11,2014-01-11 11:20:00,
2014-01-11 06:25:00,23.2,21.5,29.80,ENE,67,1.3,2.5,93,0.00,,,0.00,WeatherCatV1.24B11,2014-01-11 11:25:00,
2014-01-11 06:30:00,23.4,21.6,29.80,NE,45,1.6,2.2,93,0.00,,,0.00,WeatherCatV1.24B11,2014-01-11 11:30:00,
2014-01-11 06:35:00,23.4,21.6,29.80,ENE,67,2.7,3.6,93,0.00,,,0.00,WeatherCatV1.24B11,2014-01-11 11:35:00,
2014-01-11 06:40:00,23.4,21.6,29.80,NE,45,1.6,1.6,93,0.00,,,0.00,WeatherCatV1.24B11,2014-01-11 11:40:00,
2014-01-11 06:45:00,23.5,21.8,29.80,ENE,67,2.0,2.0,93,0.00,,,0.00,WeatherCatV1.24B11,2014-01-11 11:45:00,
2014-01-11 06:50:00,23.5,21.8,29.74,East,90,1.3,2.7,93,0.00,,,0.00,WeatherCatV1.24B11,2014-01-11 11:50:00,
2014-01-11 06:55:00,23.5,22.1,29.74,NE,45,1.6,3.8,94,0.00,,,0.00,WeatherCatV1.24B11,2014-01-11 11:55:00,
2014-01-11 07:00:00,23.7,22.0,29.74,NNE,22,1.3,2.5,93,0.00,,,0.00,WeatherCatV1.24B11,2014-01-11 12:00:00,
2014-01-11 07:05:00,23.7,22.2,29.74,NE,45,1.1,3.8,94,0.00,,,0.00,WeatherCatV1.24B11,2014-01-11 12:05:00,
2014-01-11 07:10:00,23.9,22.4,29.74,ENE,67,0.0,0.0,94,0.00,,,0.00,WeatherCatV1.24B11,2014-01-11 12:10:00,
2014-01-11 07:16:00,23.9,22.4,29.74,ENE,67,2.9,2.9,94,0.00,,,0.00,WeatherCatV1.24B11,2014-01-11 12:16:00,
2014-01-11 07:21:00,24.1,22.6,29.74,ENE,67,2.5,2.7,94,0.00,,,0.00,WeatherCatV1.24B11,2014-01-11 12:21:00,
2014-01-11 07:26:00,24.1,22.6,29.74,ENE,67,2.7,2.7,94,0.00,,,0.00,WeatherCatV1.24B11,2014-01-11 12:26:00,
2014-01-11 07:31:00,24.1,22.6,29.74,ENE,67,0.0,2.2,94,0.00,,,0.00,WeatherCatV1.24B11,2014-01-11 12:31:00,
2014-01-11 07:36:00,24.3,22.5,29.71,NNW,337,0.0,0.0,93,0.00,,,0.00,WeatherCatV1.24B11,2014-01-11 12:36:00,
2014-01-11 07:41:00,24.3,22.5,29.71,NNE,22,0.0,0.0,93,0.00,,,0.00,WeatherCatV1.24B11,2014-01-11 12:41:00,
2014-01-11 07:46:00,24.4,22.7,29.71,NNE,22,0.0,0.0,93,0.00,,,0.00,WeatherCatV1.24B11,2014-01-11 12:46:00,
2014-01-11 07:51:00,24.4,22.7,29.71,ENE,67,0.0,0.0,93,0.00,,,0.00,WeatherCatV1.24B11,2014-01-11 12:51:00,
2014-01-11 07:56:00,24.4,22.7,29.71,East,90,0.0,0.0,93,0.00,,,0.00,WeatherCatV1.24B11,2014-01-11 12:56:00,
2014-01-11 08:01:00,24.6,22.9,29.71,ENE,67,0.9,0.9,93,0.00,,,0.00,WeatherCatV1.24B11,2014-01-11 13:01:00,
2014-01-11 08:06:00,24.8,23.1,29.68,ENE,67,0.0,1.1,93,0.00,,,0.00,WeatherCatV1.24B11,2014-01-11 13:06:00,
2014-01-11 08:11:00,25.0,23.2,29.68,East,90,0.0,1.3,93,0.00,,,0.00,WeatherCatV1.24B11,2014-01-11 13:11:00,
2014-01-11 08:16:00,25.0,23.5,29.68,NW,315,0.0,0.0,94,0.00,,,0.00,WeatherCatV1.24B11,2014-01-11 13:16:00,
2014-01-11 08:21:00,25.2,23.4,29.65,NNE,22,0.9,1.3,93,0.00,,,0.00,WeatherCatV1.24B11,2014-01-11 13:21:00,
2014-01-11 08:26:00,25.2,23.7,29.65,NE,45,0.9,1.1,94,0.00,,,0.00,WeatherCatV1.24B11,2014-01-11 13:26:00,
2014-01-11 08:31:00,25.2,23.7,29.65,North,0,0.0,0.0,94,0.00,,,0.00,WeatherCatV1.24B11,2014-01-11 13:31:00,
2014-01-11 08:36:00,25.3,23.9,29.68,NE,45,0.0,0.9,94,0.00,,,0.00,WeatherCatV1.24B11,2014-01-11 13:36:00,
2014-01-11 08:41:00,25.3,23.9,29.68,NNE,22,1.6,1.6,94,0.00,,,0.00,WeatherCatV1.24B11,2014-01-11 13:41:00,
2014-01-11 08:46:00,25.3,23.9,29.68,NNE,22,1.1,1.1,94,0.00,,,0.00,WeatherCatV1.24B11,2014-01-11 13:46:00,
2014-01-11 08:51:00,25.3,23.9,29.62,NE,45,0.0,1.6,94,0.00,,,0.00,WeatherCatV1.24B11,2014-01-11 13:51:00,
2014-01-11 08:56:00,25.3,23.9,29.62,SE,135,2.0,2.5,94,0.00,,,0.00,WeatherCatV1.24B11,2014-01-11 13:56:00,
2014-01-11 09:01:00,25.3,23.9,29.62,NE,45,0.9,2.0,94,0.00,,,0.00,WeatherCatV1.24B11,2014-01-11 14:01:00,
2014-01-11 09:06:00,25.3,23.9,29.62,WNW,292,2.0,2.0,94,0.00,,,0.00,WeatherCatV1.24B11,2014-01-11 14:06:00,
2014-01-11 09:11:00,25.5,24.3,29.62,NNW,337,2.2,2.5,95,0.00,,,0.00,WeatherCatV1.24B11,2014-01-11 14:11:00,
2014-01-11 09:16:00,25.5,24.0,29.62,SE,135,2.7,2.7,94,0.00,,,0.00,WeatherCatV1.24B11,2014-01-11 14:16:00,
2014-01-11 09:21:00,25.5,24.3,29.59,NNE,22,3.8,3.8,95,0.00,,,0.00,WeatherCatV1.24B11,2014-01-11 14:21:00,
2014-01-11 09:26:00,25.7,24.5,29.59,NE,45,1.6,1.6,95,0.00,,,0.00,WeatherCatV1.24B11,2014-01-11 14:26:00,
2014-01-11 09:31:00,25.9,24.6,29.59,East,90,0.0,0.0,95,0.00,,,0.00,WeatherCatV1.24B11,2014-01-11 14:31:00,
2014-01-11 09:36:00,25.9,24.6,29.62,ENE,67,0.0,0.0,95,0.00,,,0.00,WeatherCatV1.24B11,2014-01-11 14:36:00,
2014-01-11 09:42:00,25.9,24.6,29.62,NE,45,0.0,0.0,95,0.00,,,0.00,WeatherCatV1.24B11,2014-01-11 14:42:00,
2014-01-11 09:47:00,26.1,24.8,29.62,NE,45,0.0,1.1,95,0.00,,,0.00,WeatherCatV1.24B11,2014-01-11 14:47:00,
2014-01-11 09:52:00,26.2,25.0,29.62,NNE,22,0.0,0.0,95,0.00,,,0.00,WeatherCatV1.24B11,2014-01-11 14:52:00,
2014-01-11 09:57:00,26.2,25.0,29.62,ENE,67,1.1,1.1,95,0.00,,,0.00,WeatherCatV1.24B11,2014-01-11 14:57:00,
2014-01-11 10:02:00,26.6,25.4,29.56,NE,45,0.0,0.0,95,0.00,,,0.00,WeatherCatV1.24B11,2014-01-11 15:02:00,
2014-01-11 10:07:00,26.8,25.5,29.56,ENE,67,0.0,2.9,95,0.00,,,0.00,WeatherCatV1.24B11,2014-01-11 15:07:00,
2014-01-11 10:12:00,26.8,25.5,29.56,ENE,67,0.0,0.0,95,0.00,,,0.00,WeatherCatV1.24B11,2014-01-11 15:12:00,
2014-01-11 10:17:00,27.0,25.7,29.56,NNE,22,0.0,1.3,95,0.00,,,0.00,WeatherCatV1.24B11,2014-01-11 15:17:00,
2014-01-11 10:22:00,27.0,25.7,29.56,NNW,337,1.1,1.6,95,0.00,,,0.00,WeatherCatV1.24B11,2014-01-11 15:22:00,
2014-01-11 10:27:00,27.1,25.9,29.56,WNW,292,0.9,1.3,95,0.00,,,0.00,WeatherCatV1.24B11,2014-01-11 15:27:00,
2014-01-11 10:32:00,27.3,26.1,29.56,NNW,337,0.0,1.1,95,0.00,,,0.00,WeatherCatV1.24B11,2014-01-11 15:32:00,
2014-01-11 10:37:00,27.5,26.3,29.56,ESE,112,0.0,0.0,95,0.00,,,0.00,WeatherCatV1.24B11,2014-01-11 15:37:00,
2014-01-11 10:42:00,27.9,26.9,29.56,ESE,112,1.6,1.6,96,0.00,,,0.00,WeatherCatV1.24B11,2014-01-11 15:42:00,
2014-01-11 10:47:00,28.0,27.0,29.56,NNE,22,1.1,1.1,96,0.00,,,0.00,WeatherCatV1.24B11,2014-01-11 15:47:00,
2014-01-11 10:52:00,28.2,27.2,29.53,NE,45,0.0,0.0,96,0.00,,,0.00,WeatherCatV1.24B11,2014-01-11 15:52:00,
2014-01-11 10:57:00,28.4,27.4,29.53,ENE,67,1.6,1.6,96,0.00,,,0.00,WeatherCatV1.24B11,2014-01-11 15:57:00,
2014-01-11 11:02:00,28.9,28.0,29.50,North,0,1.3,1.3,96,0.00,,,0.00,WeatherCatV1.24B11,2014-01-11 16:02:00,
2014-01-11 11:07:00,29.1,28.1,29.50,SE,135,0.0,0.9,96,0.00,,,0.00,WeatherCatV1.24B11,2014-01-11 16:07:00,
2014-01-11 11:12:00,29.3,28.3,29.50,East,90,0.0,1.1,96,0.00,,,0.00,WeatherCatV1.24B11,2014-01-11 16:12:00,
2014-01-11 11:17:00,29.5,28.5,29.50,NE,45,0.0,1.1,96,0.00,,,0.00,WeatherCatV1.24B11,2014-01-11 16:17:00,
2014-01-11 11:22:00,29.5,28.5,29.53,SSE,157,0.9,1.6,96,0.00,,,0.00,WeatherCatV1.24B11,2014-01-11 16:22:00,
2014-01-11 11:27:00,29.8,28.8,29.53,NE,45,0.9,0.9,96,0.00,,,0.00,WeatherCatV1.24B11,2014-01-11 16:27:00,
2014-01-11 11:33:00,29.8,28.8,29.50,SE,135,0.0,1.3,96,0.00,,,0.00,WeatherCatV1.24B11,2014-01-11 16:33:00,
2014-01-11 11:38:00,29.8,28.8,29.50,North,0,0.0,0.9,96,0.00,,,0.00,WeatherCatV1.24B11,2014-01-11 16:38:00,
2014-01-11 11:43:00,29.8,28.8,29.50,SE,135,0.0,0.0,96,0.00,,,0.00,WeatherCatV1.24B11,2014-01-11 16:43:00,
2014-01-11 11:48:00,30.0,29.0,29.50,NE,45,0.0,0.9,96,0.00,,,0.00,WeatherCatV1.24B11,2014-01-11 16:48:00,
2014-01-11 11:53:00,30.4,29.6,29.47,WNW,292,0.0,1.1,97,0.00,,,0.00,WeatherCatV1.24B11,2014-01-11 16:53:00,
2014-01-11 11:58:00,30.6,29.8,29.47,WNW,292,0.0,1.6,97,0.00,,,0.00,WeatherCatV1.24B11,2014-01-11 16:58:00,
2014-01-11 12:03:00,30.7,30.0,29.41,WNW,292,1.1,1.1,97,0.00,,,0.00,WeatherCatV1.24B11,2014-01-11 17:03:00,
2014-01-11 12:08:00,31.1,30.4,29.41,NE,45,0.0,0.0,97,0.00,,,0.00,WeatherCatV1.24B11,2014-01-11 17:08:00,
2014-01-11 12:13:00,31.6,30.9,29.41,North,0,0.0,0.0,97,0.00,,,0.00,WeatherCatV1.24B11,2014-01-11 17:13:00,
2014-01-11 12:18:00,31.6,30.9,29.47,WNW,292,1.1,1.3,97,0.00,,,0.00,WeatherCatV1.24B11,2014-01-11 17:18:00,
2014-01-11 12:23:00,31.6,30.9,29.47,SE,135,0.0,0.9,97,0.00,,,0.00,WeatherCatV1.24B11,2014-01-11 17:23:00,
2014-01-11 12:28:00,31.6,30.9,29.47,NNW,337,2.7,2.7,97,0.00,,,0.00,WeatherCatV1.24B11,2014-01-11 17:28:00,
2014-01-11 12:33:00,31.6,30.9,29.41,WNW,292,0.0,0.0,97,0.00,,,0.00,WeatherCatV1.24B11,2014-01-11 17:33:00,
2014-01-11 12:38:00,31.8,31.3,29.41,WNW,292,0.0,0.0,98,0.00,,,0.04,WeatherCatV1.24B11,2014-01-11 17:38:00,
2014-01-11 12:43:00,32.0,31.2,29.41,WNW,292,0.0,0.0,97,0.00,,,0.04,WeatherCatV1.24B11,2014-01-11 17:43:00,
2014-01-11 12:48:00,32.0,31.2,29.38,WNW,292,0.0,0.0,97,0.00,,,0.04,WeatherCatV1.24B11,2014-01-11 17:48:00,
2014-01-11 12:53:00,32.0,31.2,29.38,WNW,292,0.0,0.0,97,0.00,,,0.04,WeatherCatV1.24B11,2014-01-11 17:53:00,
2014-01-11 12:58:00,32.2,31.7,29.38,WNW,292,0.0,1.3,98,0.00,,,0.04,WeatherCatV1.24B11,2014-01-11 17:58:00,
2014-01-11 13:03:00,32.2,31.7,29.38,WNW,292,0.0,0.0,98,0.00,,,0.04,WeatherCatV1.24B11,2014-01-11 18:03:00,
2014-01-11 13:08:00,32.4,31.9,29.38,WNW,292,0.9,0.9,98,0.00,,,0.04,WeatherCatV1.24B11,2014-01-11 18:08:00,
2014-01-11 13:13:00,32.5,32.0,29.38,NW,315,0.0,0.0,98,0.00,,,0.04,WeatherCatV1.24B11,2014-01-11 18:13:00,
2014-01-11 13:18:00,32.5,32.0,29.38,NW,315,1.1,1.1,98,0.00,,,0.04,WeatherCatV1.24B11,2014-01-11 18:18:00,
2014-01-11 13:24:00,32.5,32.0,29.38,NW,315,0.0,1.3,98,0.00,,,0.04,WeatherCatV1.24B11,2014-01-11 18:24:00,
2014-01-11 13:29:00,32.7,32.2,29.38,SE,135,0.0,0.0,98,0.00,,,0.04,WeatherCatV1.24B11,2014-01-11 18:29:00,
2014-01-11 13:34:00,32.7,32.2,29.35,WNW,292,0.0,0.0,98,0.00,,,0.04,WeatherCatV1.24B11,2014-01-11 18:34:00,
2014-01-11 13:39:00,32.7,32.2,29.35,WNW,292,0.0,0.0,98,0.00,,,0.04,WeatherCatV1.24B11,2014-01-11 18:39:00,
2014-01-11 13:44:00,32.9,32.4,29.35,NE,45,0.0,1.3,98,0.00,,,0.04,WeatherCatV1.24B11,2014-01-11 18:44:00,
2014-01-11 13:49:00,32.9,32.4,29.35,NNE,22,0.0,0.0,98,0.00,,,0.04,WeatherCatV1.24B11,2014-01-11 18:49:00,
2014-01-11 13:54:00,33.1,32.6,29.32,North,0,0.0,1.6,98,0.00,,,0.04,WeatherCatV1.24B11,2014-01-11 18:54:00,
2014-01-11 13:59:00,33.1,32.6,29.32,ESE,112,0.0,0.0,98,0.00,,,0.04,WeatherCatV1.24B11,2014-01-11 18:59:00,
2014-01-11 14:04:00,33.1,32.6,29.29,ENE,67,0.0,0.0,98,0.00,,,0.04,WeatherCatV1.24B11,2014-01-11 19:04:00,
2014-01-11 14:09:00,33.1,32.6,29.29,NE,45,0.0,0.0,98,0.00,,,0.04,WeatherCatV1.24B11,2014-01-11 19:09:00,
2014-01-11 14:14:00,33.1,32.6,29.29,NE,45,2.0,2.0,98,0.00,,,0.04,WeatherCatV1.24B11,2014-01-11 19:14:00,
2014-01-11 14:19:00,33.1,32.6,29.32,NNE,22,0.0,0.0,98,0.00,,,0.04,WeatherCatV1.24B11,2014-01-11 19:19:00,
2014-01-11 14:24:00,33.1,32.6,29.29,NNE,22,0.0,0.0,98,0.00,,,0.04,WeatherCatV1.24B11,2014-01-11 19:24:00,
2014-01-11 14:30:00,33.1,32.6,29.32,ENE,67,0.0,0.0,98,0.00,,,0.04,WeatherCatV1.24B11,2014-01-11 19:30:00,
2014-01-11 14:35:00,33.1,32.6,29.29,East,90,0.0,0.0,98,0.00,,,0.04,WeatherCatV1.24B11,2014-01-11 19:35:00,
2014-01-11 14:40:00,33.1,32.6,29.29,ESE,112,0.0,0.0,98,0.00,,,0.04,WeatherCatV1.24B11,2014-01-11 19:40:00,
2014-01-11 14:45:00,33.1,32.6,29.29,NNW,337,1.1,1.1,98,0.00,,,0.04,WeatherCatV1.24B11,2014-01-11 19:45:00,
2014-01-11 14:50:00,33.1,32.6,29.29,NW,315,0.0,0.0,98,0.00,,,0.04,WeatherCatV1.24B11,2014-01-11 19:50:00,
2014-01-11 14:55:00,33.3,32.8,29.29,ENE,67,2.2,2.2,98,0.00,,,0.04,WeatherCatV1.24B11,2014-01-11 19:55:00,
2014-01-11 15:00:00,33.3,32.8,29.29,ENE,67,0.0,0.0,98,0.00,,,0.04,WeatherCatV1.24B11,2014-01-11 20:00:00,
2014-01-11 15:05:00,33.3,32.8,29.26,SE,135,0.0,0.0,98,0.00,,,0.04,WeatherCatV1.24B11,2014-01-11 20:05:00,
2014-01-11 15:09:00,33.3,32.8,29.26,SE,135,2.9,3.4,98,0.00,,,0.04,WeatherCatV1.24B11,2014-01-11 20:09:00,
2014-01-11 15:14:00,33.3,32.8,29.26,East,90,0.0,0.0,98,0.00,,,0.04,WeatherCatV1.24B11,2014-01-11 20:14:00,
2014-01-11 15:19:00,33.3,32.8,29.29,NE,45,1.1,1.1,98,0.00,,,0.04,WeatherCatV1.24B11,2014-01-11 20:19:00,
2014-01-11 15:24:00,33.6,33.1,29.29,NE,45,0.0,0.0,98,0.00,,,0.04,WeatherCatV1.24B11,2014-01-11 20:24:00,
2014-01-11 15:29:00,33.6,33.1,29.29,SSE,157,0.0,0.0,98,0.00,,,0.04,WeatherCatV1.24B11,2014-01-11 20:29:00,
2014-01-11 15:34:00,33.4,32.9,29.26,NNW,337,0.0,0.0,98,0.00,,,0.04,WeatherCatV1.24B11,2014-01-11 20:34:00,
2014-01-11 15:39:00,33.3,32.8,29.26,WNW,292,0.0,0.0,98,0.00,,,0.04,WeatherCatV1.24B11,2014-01-11 20:39:00,
2014-01-11 15:44:00,33.3,32.8,29.26,WNW,292,1.1,1.1,98,0.00,,,0.04,WeatherCatV1.24B11,2014-01-11 20:44:00,
2014-01-11 15:49:00,33.3,32.8,29.26,NW,315,0.0,0.0,98,0.00,,,0.04,WeatherCatV1.24B11,2014-01-11 20:49:00,
2014-01-11 15:54:00,33.3,32.8,29.26,NNW,337,0.0,0.0,98,0.00,,,0.04,WeatherCatV1.24B11,2014-01-11 20:54:00,
2014-01-11 15:59:00,33.3,32.8,29.26,NNW,337,0.0,0.0,98,0.00,,,0.04,WeatherCatV1.24B11,2014-01-11 20:59:00,
2014-01-11 16:04:00,33.3,32.8,29.26,NNE,22,0.0,0.0,98,0.00,,,0.04,WeatherCatV1.24B11,2014-01-11 21:04:00,
2014-01-11 16:09:00,33.3,32.8,29.26,NNE,22,0.0,0.0,98,0.00,,,0.04,WeatherCatV1.24B11,2014-01-11 21:09:00,
2014-01-11 16:14:00,33.3,32.8,29.26,NE,45,0.0,0.0,98,0.00,,,0.04,WeatherCatV1.24B11,2014-01-11 21:14:00,
2014-01-11 16:19:00,33.3,32.8,29.20,NNE,22,0.0,0.0,98,0.00,,,0.04,WeatherCatV1.24B11,2014-01-11 21:19:00,
2014-01-11 16:24:00,33.4,32.9,29.20,ENE,67,1.1,3.8,98,0.00,,,0.04,WeatherCatV1.24B11,2014-01-11 21:24:00,
2014-01-11 16:30:00,33.4,32.9,29.20,North,0,0.0,0.0,98,0.00,,,0.04,WeatherCatV1.24B11,2014-01-11 21:30:00,
2014-01-11 16:34:00,33.4,32.9,29.20,North,0,0.0,0.0,98,0.00,,,0.04,WeatherCatV1.24B11,2014-01-11 21:34:00,
2014-01-11 16:39:00,33.4,32.9,29.20,NNW,337,0.0,0.0,98,0.00,,,0.04,WeatherCatV1.24B11,2014-01-11 21:39:00,
2014-01-11 16:44:00,33.3,32.8,29.20,NNW,337,0.0,0.0,98,0.00,,,0.04,WeatherCatV1.24B11,2014-01-11 21:44:00,
2014-01-11 16:49:00,33.3,32.8,29.20,NNW,337,0.0,0.0,98,0.00,,,0.04,WeatherCatV1.24B11,2014-01-11 21:49:00,
2014-01-11 16:54:00,33.3,32.8,29.20,NNW,337,0.0,0.0,98,0.00,,,0.04,WeatherCatV1.24B11,2014-01-11 21:54:00,
2014-01-11 16:59:00,33.3,32.8,29.20,NNW,337,0.0,0.0,98,0.00,,,0.04,WeatherCatV1.24B11,2014-01-11 21:59:00,
2014-01-11 17:04:00,33.3,32.8,29.20,NNW,337,0.0,0.0,98,0.00,,,0.04,WeatherCatV1.24B11,2014-01-11 22:04:00,
2014-01-11 17:09:00,33.3,32.8,29.20,NNW,337,0.0,0.0,98,0.00,,,0.04,WeatherCatV1.24B11,2014-01-11 22:09:00,
2014-01-11 17:14:00,33.4,32.9,29.20,NNW,337,0.0,0.0,98,0.00,,,0.04,WeatherCatV1.24B11,2014-01-11 22:14:00,
2014-01-11 17:19:00,33.4,32.9,29.20,NE,45,0.9,0.9,98,0.00,,,0.04,WeatherCatV1.24B11,2014-01-11 22:19:00,
2014-01-11 17:24:00,33.4,32.9,29.20,NE,45,0.0,0.0,98,0.00,,,0.04,WeatherCatV1.24B11,2014-01-11 22:24:00,
2014-01-11 17:29:00,33.4,32.9,29.20,NE,45,0.0,0.0,98,0.00,,,0.04,WeatherCatV1.24B11,2014-01-11 22:29:00,
2014-01-11 17:34:00,33.6,33.1,29.20,NE,45,0.0,0.0,98,0.00,,,0.04,WeatherCatV1.24B11,2014-01-11 22:34:00,
2014-01-11 17:39:00,33.6,33.1,29.18,WNW,292,0.0,0.0,98,0.00,,,0.04,WeatherCatV1.24B11,2014-01-11 22:39:00,
2014-01-11 17:44:00,33.6,33.1,29.18,ENE,67,0.0,0.0,98,0.00,,,0.04,WeatherCatV1.24B11,2014-01-11 22:44:00,
2014-01-11 17:49:00,33.6,33.1,29.18,ENE,67,0.0,0.0,98,0.00,,,0.04,WeatherCatV1.24B11,2014-01-11 22:49:00,
2014-01-11 17:54:00,33.6,33.1,29.18,ENE,67,0.0,0.0,98,0.00,,,0.04,WeatherCatV1.24B11,2014-01-11 22:54:00,
2014-01-11 17:59:00,33.6,33.1,29.18,ENE,67,0.0,2.5,98,0.00,,,0.04,WeatherCatV1.24B11,2014-01-11 22:59:00,
2014-01-11 18:04:00,33.8,33.3,29.15,NE,45,0.0,0.0,98,0.00,,,0.04,WeatherCatV1.24B11,2014-01-11 23:04:00,
2014-01-11 18:09:00,33.8,33.3,29.15,NNW,337,0.0,0.0,98,0.00,,,0.04,WeatherCatV1.24B11,2014-01-11 23:09:00,
2014-01-11 18:14:00,33.6,33.1,29.15,WNW,292,0.0,0.0,98,0.00,,,0.04,WeatherCatV1.24B11,2014-01-11 23:14:00,
2014-01-11 18:19:00,33.6,33.1,29.12,WNW,292,0.0,2.7,98,0.00,,,0.04,WeatherCatV1.24B11,2014-01-11 23:19:00,
2014-01-11 18:25:00,33.6,33.1,29.12,WNW,292,0.0,0.0,98,0.00,,,0.04,WeatherCatV1.24B11,2014-01-11 23:25:00,
2014-01-11 18:30:00,33.6,33.1,29.12,SSE,157,0.0,0.0,98,0.00,,,0.04,WeatherCatV1.24B11,2014-01-11 23:30:00,
2014-01-11 18:35:00,33.6,33.1,29.15,WNW,292,0.0,1.6,98,0.00,,,0.04,WeatherCatV1.24B11,2014-01-11 23:35:00,
2014-01-11 18:40:00,33.6,33.1,29.15,SE,135,0.0,0.0,98,0.00,,,0.04,WeatherCatV1.24B11,2014-01-11 23:40:00,
2014-01-11 18:45:00,33.6,33.1,29.15,SE,135,0.0,0.0,98,0.00,,,0.04,WeatherCatV1.24B11,2014-01-11 23:45:00,
2014-01-11 18:50:00,33.6,33.1,29.12,WNW,292,0.0,0.0,98,0.00,,,0.04,WeatherCatV1.24B11,2014-01-11 23:50:00,
2014-01-11 18:55:00,33.8,33.3,29.12,ENE,67,0.0,2.2,98,0.00,,,0.04,WeatherCatV1.24B11,2014-01-11 23:55:00,
2014-01-11 19:00:00,33.8,33.3,29.12,NE,45,0.0,0.9,98,0.00,,,0.04,WeatherCatV1.24B11,2014-01-12 00:00:00,
2014-01-11 19:05:00,33.8,33.3,29.09,ESE,112,0.0,1.3,98,0.00,,,0.04,WeatherCatV1.24B11,2014-01-12 00:05:00,
2014-01-11 19:10:00,34.0,33.5,29.09,ENE,67,0.0,0.0,98,0.00,,,0.04,WeatherCatV1.24B11,2014-01-12 00:10:00,
2014-01-11 19:15:00,34.0,33.5,29.09,East,90,0.0,0.0,98,0.00,,,0.04,WeatherCatV1.24B11,2014-01-12 00:15:00,
2014-01-11 19:20:00,34.2,33.7,29.06,WNW,292,0.0,0.0,98,0.00,,,0.04,WeatherCatV1.24B11,2014-01-12 00:20:00,
2014-01-11 19:25:00,34.2,33.7,29.06,WNW,292,0.0,0.0,98,0.00,,,0.04,WeatherCatV1.24B11,2014-01-12 00:25:00,
2014-01-11 19:30:00,34.2,33.7,29.06,WNW,292,0.0,0.0,98,0.00,,,0.04,WeatherCatV1.24B11,2014-01-12 00:30:00,
2014-01-11 19:35:00,34.2,33.7,29.09,WNW,292,0.0,0.0,98,0.00,,,0.04,WeatherCatV1.24B11,2014-01-12 00:35:00,
2014-01-11 19:40:00,34.2,33.7,29.09,SSE,157,0.0,2.7,98,0.00,,,0.04,WeatherCatV1.24B11,2014-01-12 00:40:00,
2014-01-11 19:45:00,34.2,33.7,29.09,WSW,247,2.7,2.7,98,0.00,,,0.04,WeatherCatV1.24B11,2014-01-12 00:45:00,
2014-01-11 19:50:00,34.3,33.8,29.09,ESE,112,0.0,0.0,98,0.00,,,0.04,WeatherCatV1.24B11,2014-01-12 00:50:00,
2014-01-11 19:55:00,34.3,33.8,29.09,NE,45,1.6,1.6,98,0.00,,,0.04,WeatherCatV1.24B11,2014-01-12 00:55:00,
2014-01-11 20:00:00,34.3,33.8,29.09,SE,135,0.0,0.0,98,0.00,,,0.04,WeatherCatV1.24B11,2014-01-12 01:00:00,
2014-01-11 20:05:00,34.3,33.8,29.06,SE,135,0.0,0.0,98,0.00,,,0.04,WeatherCatV1.24B11,2014-01-12 01:05:00,
2014-01-11 20:10:00,34.3,33.8,29.06,ESE,112,0.0,0.0,98,0.00,,,0.04,WeatherCatV1.24B11,2014-01-12 01:10:00,
2014-01-11 20:15:00,34.3,33.8,29.06,ESE,112,0.0,0.0,98,0.00,,,0.04,WeatherCatV1.24B11,2014-01-12 01:15:00,
2014-01-11 20:20:00,34.3,33.8,29.06,NNW,337,0.0,0.0,98,0.00,,,0.04,WeatherCatV1.24B11,2014-01-12 01:20:00,
2014-01-11 20:25:00,34.3,33.8,29.06,NNW,337,0.0,0.0,98,0.00,,,0.04,WeatherCatV1.24B11,2014-01-12 01:25:00,
2014-01-11 20:30:00,34.3,33.8,29.06,NNW,337,0.0,0.0,98,0.00,,,0.04,WeatherCatV1.24B11,2014-01-12 01:30:00,
2014-01-11 20:35:00,34.7,34.2,29.03,West,270,0.0,4.3,98,0.00,,,0.04,WeatherCatV1.24B11,2014-01-12 01:35:00,
2014-01-11 20:40:00,35.1,34.5,29.03,WNW,292,0.0,2.9,98,0.00,,,0.04,WeatherCatV1.24B11,2014-01-12 01:40:00,
2014-01-11 20:45:00,35.8,35.3,29.03,SSW,202,0.0,0.0,98,0.00,,,0.04,WeatherCatV1.24B11,2014-01-12 01:45:00,
2014-01-11 20:50:00,36.3,35.8,29.03,West,270,0.0,0.0,98,0.00,,,0.04,WeatherCatV1.24B11,2014-01-12 01:50:00,
2014-01-11 20:55:00,37.0,36.5,29.03,SE,135,0.9,3.8,98,0.00,,,0.04,WeatherCatV1.24B11,2014-01-12 01:55:00,
2014-01-11 21:00:00,38.5,38.0,29.03,WSW,247,2.5,4.3,98,0.00,,,0.04,WeatherCatV1.24B11,2014-01-12 02:00:00,
2014-01-11 21:05:00,38.7,38.1,29.06,WSW,247,3.8,3.8,98,0.00,,,0.04,WeatherCatV1.24B11,2014-01-12 02:05:00,
2014-01-11 21:10:00,39.7,39.2,29.06,West,270,6.3,6.3,98,0.00,,,0.04,WeatherCatV1.24B11,2014-01-12 02:10:00,
2014-01-11 21:15:00,39.7,39.2,29.06,WSW,247,2.0,3.8,98,0.00,,,0.04,WeatherCatV1.24B11,2014-01-12 02:15:00,
2014-01-11 21:20:00,40.3,39.8,29.03,WNW,292,3.1,4.9,98,0.00,,,0.04,WeatherCatV1.24B11,2014-01-12 02:20:00,
2014-01-11 21:25:00,40.3,39.8,29.06,West,270,0.0,3.6,98,0.00,,,0.04,WeatherCatV1.24B11,2014-01-12 02:25:00,
2014-01-11 21:30:00,40.3,39.8,29.03,WSW,247,0.0,2.5,98,0.00,,,0.04,WeatherCatV1.24B11,2014-01-12 02:30:00,
2014-01-11 21:36:00,40.5,39.9,29.06,WNW,292,2.9,2.9,98,0.00,,,0.04,WeatherCatV1.24B11,2014-01-12 02:36:00,
2014-01-11 21:41:00,40.8,40.3,29.06,West,270,4.3,6.5,98,0.00,,,0.04,WeatherCatV1.24B11,2014-01-12 02:41:00,
2014-01-11 21:46:00,41.2,40.7,29.06,WNW,292,3.8,4.7,98,0.00,,,0.04,WeatherCatV1.24B11,2014-01-12 02:46:00,
2014-01-11 21:51:00,41.4,40.8,29.06,WNW,292,3.4,7.4,98,0.00,,,0.04,WeatherCatV1.24B11,2014-01-12 02:51:00,
2014-01-11 21:56:00,41.4,40.8,29.06,WNW,292,3.6,3.6,98,0.00,,,0.04,WeatherCatV1.24B11,2014-01-12 02:56:00,
2014-01-11 22:01:00,41.0,40.5,29.06,East,90,2.9,2.9,98,0.00,,,0.09,WeatherCatV1.24B11,2014-01-12 03:01:00,
2014-01-11 22:06:00,41.2,40.7,29.09,SW,225,0.0,2.5,98,0.00,,,0.14,WeatherCatV1.24B11,2014-01-12 03:06:00,
2014-01-11 22:11:00,40.6,40.1,29.09,WNW,292,1.1,1.1,98,0.00,,,0.14,WeatherCatV1.24B11,2014-01-12 03:11:00,
2014-01-11 22:16:00,40.5,39.9,29.09,WNW,292,0.0,0.0,98,0.00,,,0.14,WeatherCatV1.24B11,2014-01-12 03:16:00,
2014-01-11 22:21:00,40.3,39.8,29.06,WNW,292,0.0,0.0,98,0.00,,,0.14,WeatherCatV1.24B11,2014-01-12 03:21:00,
2014-01-11 22:26:00,39.9,39.4,29.06,WSW,247,3.8,3.8,98,0.00,,,0.14,WeatherCatV1.24B11,2014-01-12 03:26:00,
2014-01-11 22:31:00,39.7,39.2,29.06,NE,45,0.0,1.1,98,0.00,,,0.14,WeatherCatV1.24B11,2014-01-12 03:31:00,
2014-01-11 22:36:00,39.9,39.4,29.09,WSW,247,0.9,4.0,98,0.00,,,0.14,WeatherCatV1.24B11,2014-01-12 03:36:00,
2014-01-11 22:41:00,40.1,39.6,29.09,WNW,292,1.1,2.5,98,0.00,,,0.14,WeatherCatV1.24B11,2014-01-12 03:41:00,
2014-01-11 22:46:00,40.1,39.6,29.09,WNW,292,0.9,1.6,98,0.00,,,0.14,WeatherCatV1.24B11,2014-01-12 03:46:00,
2014-01-11 22:51:00,40.5,39.9,29.09,WSW,247,3.6,3.6,98,0.00,,,0.14,WeatherCatV1.24B11,2014-01-12 03:51:00,
2014-01-11 22:56:00,40.8,40.3,29.09,WNW,292,3.1,10.1,98,0.00,,,0.14,WeatherCatV1.24B11,2014-01-12 03:56:00,
2014-01-11 23:01:00,40.6,40.1,29.09,SSE,157,1.6,1.6,98,0.00,,,0.14,WeatherCatV1.24B11,2014-01-12 04:01:00,
2014-01-11 23:06:00,40.6,40.1,29.09,East,90,2.5,2.9,98,0.00,,,0.14,WeatherCatV1.24B11,2014-01-12 04:06:00,
2014-01-11 23:11:00,40.8,40.3,29.09,WSW,247,4.3,4.3,98,0.00,,,0.14,WeatherCatV1.24B11,2014-01-12 04:11:00,
2014-01-11 23:16:00,40.8,40.3,29.09,WNW,292,0.0,5.4,98,0.00,,,0.14,WeatherCatV1.24B11,2014-01-12 04:16:00,
2014-01-11 23:21:00,40.8,40.3,29.09,WSW,247,2.5,4.3,98,0.00,,,0.14,WeatherCatV1.24B11,2014-01-12 04:21:00,
2014-01-11 23:26:00,40.8,40.3,29.09,WNW,292,2.5,6.3,98,0.00,,,0.14,WeatherCatV1.24B11,2014-01-12 04:26:00,
2014-01-11 23:31:00,40.8,40.3,29.09,South,180,6.0,6.5,98,0.00,,,0.14,WeatherCatV1.24B11,2014-01-12 04:31:00,
2014-01-11 23:36:00,41.0,40.5,29.09,WSW,247,0.9,3.8,98,0.00,,,0.14,WeatherCatV1.24B11,2014-01-12 04:36:00,
2014-01-11 23:41:00,40.6,40.1,29.09,SW,225,0.0,4.7,98,0.00,,,0.14,WeatherCatV1.24B11,2014-01-12 04:41:00,
2014-01-11 23:46:00,40.6,40.1,29.09,West,270,3.4,8.1,98,0.00,,,0.14,WeatherCatV1.24B11,2014-01-12 04:46:00,
2014-01-11 23:51:00,40.6,40.1,29.09,WSW,247,4.7,7.2,98,0.00,,,0.14,WeatherCatV1.24B11,2014-01-12 04:51:00,
2014-01-11 23:56:00,40.5,39.9,29.09,SSW,202,0.9,4.9,98,0.00,,,0.14,WeatherCatV1.24B11,2014-01-12 04:56:00,